sensor_id;sensor_type;location;lat;lon;timestamp;P1;durP1;ratioP1;P2;durP2;ratioP2
58864;SDS011;45702;52.982;6.658;2023-07-29T00:02:24;25.45;;;13.68;;
58864;SDS011;45702;52.982;6.658;2023-07-29T00:04:50;28.88;;;13.65;;
58864;SDS011;45702;52.982;6.658;2023-07-29T00:07:15;25.83;;;13.77;;
58864;SDS011;45702;52.982;6.658;2023-07-29T00:09:41;31.38;;;14.95;;
58864;SDS011;45702;52.982;6.658;2023-07-29T00:12:07;26.73;;;14.38;;
58864;SDS011;45702;52.982;6.658;2023-07-29T00:14:33;25.67;;;14.13;;
58864;SDS011;45702;52.982;6.658;2023-07-29T00:16:58;24.90;;;14.32;;
58864;SDS011;45702;52.982;6.658;2023-07-29T00:19:24;26.60;;;14.73;;
58864;SDS011;45702;52.982;6.658;2023-07-29T00:21:50;30.67;;;15.30;;
58864;SDS011;45702;52.982;6.658;2023-07-29T00:24:15;27.67;;;14.60;;
58864;SDS011;45702;52.982;6.658;2023-07-29T00:26:41;29.65;;;15.23;;
58864;SDS011;45702;52.982;6.658;2023-07-29T00:29:07;36.20;;;15.57;;
58864;SDS011;45702;52.982;6.658;2023-07-29T00:31:32;31.10;;;15.63;;
58864;SDS011;45702;52.982;6.658;2023-07-29T00:33:58;32.55;;;16.23;;
58864;SDS011;45702;52.982;6.658;2023-07-29T00:36:24;30.45;;;15.68;;
58864;SDS011;45702;52.982;6.658;2023-07-29T00:38:49;32.25;;;15.75;;
58864;SDS011;45702;52.982;6.658;2023-07-29T00:41:15;32.55;;;16.33;;
58864;SDS011;45702;52.982;6.658;2023-07-29T00:43:41;30.67;;;15.82;;
58864;SDS011;45702;52.982;6.658;2023-07-29T00:46:08;32.85;;;15.25;;
58864;SDS011;45702;52.982;6.658;2023-07-29T00:48:34;33.88;;;16.52;;
58864;SDS011;45702;52.982;6.658;2023-07-29T00:51:00;27.73;;;15.07;;
58864;SDS011;45702;52.982;6.658;2023-07-29T00:53:26;29.38;;;16.15;;
58864;SDS011;45702;52.982;6.658;2023-07-29T00:55:52;28.52;;;15.50;;
58864;SDS011;45702;52.982;6.658;2023-07-29T00:58:18;28.77;;;15.52;;
58864;SDS011;45702;52.982;6.658;2023-07-29T01:00:44;28.17;;;14.85;;
58864;SDS011;45702;52.982;6.658;2023-07-29T01:03:10;30.85;;;15.50;;
58864;SDS011;45702;52.982;6.658;2023-07-29T01:05:50;28.48;;;15.52;;
58864;SDS011;45702;52.982;6.658;2023-07-29T01:11:06;30.33;;;15.00;;
58864;SDS011;45702;52.982;6.658;2023-07-29T01:13:58;26.77;;;13.73;;
58864;SDS011;45702;52.982;6.658;2023-07-29T01:16:45;29.92;;;14.93;;
58864;SDS011;45702;52.982;6.658;2023-07-29T01:22:13;29.92;;;14.85;;
58864;SDS011;45702;52.982;6.658;2023-07-29T01:24:39;29.35;;;14.45;;
58864;SDS011;45702;52.982;6.658;2023-07-29T01:27:05;25.65;;;13.82;;
58864;SDS011;45702;52.982;6.658;2023-07-29T01:29:31;29.55;;;14.40;;
58864;SDS011;45702;52.982;6.658;2023-07-29T01:31:58;30.50;;;14.60;;
58864;SDS011;45702;52.982;6.658;2023-07-29T01:34:35;25.58;;;13.25;;
58864;SDS011;45702;52.982;6.658;2023-07-29T01:37:06;27.92;;;13.82;;
58864;SDS011;45702;52.982;6.658;2023-07-29T01:39:36;29.77;;;14.07;;
58864;SDS011;45702;52.982;6.658;2023-07-29T01:42:03;25.80;;;13.45;;
58864;SDS011;45702;52.982;6.658;2023-07-29T01:44:30;29.23;;;13.63;;
58864;SDS011;45702;52.982;6.658;2023-07-29T01:46:57;25.67;;;14.07;;
58864;SDS011;45702;52.982;6.658;2023-07-29T01:49:22;25.23;;;12.80;;
58864;SDS011;45702;52.982;6.658;2023-07-29T01:51:51;24.08;;;13.60;;
58864;SDS011;45702;52.982;6.658;2023-07-29T01:54:16;26.98;;;13.35;;
58864;SDS011;45702;52.982;6.658;2023-07-29T01:56:42;26.27;;;12.98;;
58864;SDS011;45702;52.982;6.658;2023-07-29T01:59:08;23.80;;;13.05;;
58864;SDS011;45702;52.982;6.658;2023-07-29T02:01:33;27.50;;;13.77;;
58864;SDS011;45702;52.982;6.658;2023-07-29T02:03:59;26.95;;;13.43;;
58864;SDS011;45702;52.982;6.658;2023-07-29T02:06:25;26.35;;;13.18;;
58864;SDS011;45702;52.982;6.658;2023-07-29T02:08:52;27.38;;;13.15;;
58864;SDS011;45702;52.982;6.658;2023-07-29T02:11:20;26.50;;;13.60;;
58864;SDS011;45702;52.982;6.658;2023-07-29T02:13:52;27.00;;;13.07;;
58864;SDS011;45702;52.982;6.658;2023-07-29T02:18:47;23.45;;;12.88;;
58864;SDS011;45702;52.982;6.658;2023-07-29T02:21:14;22.45;;;11.90;;
58864;SDS011;45702;52.982;6.658;2023-07-29T02:23:40;26.27;;;12.73;;
58864;SDS011;45702;52.982;6.658;2023-07-29T02:26:06;25.15;;;12.48;;
58864;SDS011;45702;52.982;6.658;2023-07-29T02:28:32;23.70;;;11.70;;
58864;SDS011;45702;52.982;6.658;2023-07-29T02:33:44;22.42;;;12.02;;
58864;SDS011;45702;52.982;6.658;2023-07-29T02:36:11;21.35;;;11.07;;
58864;SDS011;45702;52.982;6.658;2023-07-29T02:38:38;20.95;;;11.43;;
58864;SDS011;45702;52.982;6.658;2023-07-29T02:41:04;20.73;;;11.05;;
58864;SDS011;45702;52.982;6.658;2023-07-29T02:43:29;22.77;;;11.80;;
58864;SDS011;45702;52.982;6.658;2023-07-29T02:45:55;25.52;;;11.48;;
58864;SDS011;45702;52.982;6.658;2023-07-29T02:48:21;26.08;;;11.95;;
58864;SDS011;45702;52.982;6.658;2023-07-29T02:50:46;28.00;;;11.45;;
58864;SDS011;45702;52.982;6.658;2023-07-29T02:53:12;25.52;;;12.02;;
58864;SDS011;45702;52.982;6.658;2023-07-29T02:55:41;20.92;;;10.90;;
58864;SDS011;45702;52.982;6.658;2023-07-29T02:58:07;22.58;;;11.15;;
58864;SDS011;45702;52.982;6.658;2023-07-29T03:00:33;18.73;;;10.57;;
58864;SDS011;45702;52.982;6.658;2023-07-29T03:02:59;23.90;;;10.80;;
58864;SDS011;45702;52.982;6.658;2023-07-29T03:05:28;22.92;;;10.98;;
58864;SDS011;45702;52.982;6.658;2023-07-29T03:07:53;20.58;;;10.93;;
58864;SDS011;45702;52.982;6.658;2023-07-29T03:10:19;22.52;;;10.65;;
58864;SDS011;45702;52.982;6.658;2023-07-29T03:12:45;18.38;;;9.43;;
58864;SDS011;45702;52.982;6.658;2023-07-29T03:15:11;19.58;;;10.73;;
58864;SDS011;45702;52.982;6.658;2023-07-29T03:17:37;18.63;;;10.02;;
58864;SDS011;45702;52.982;6.658;2023-07-29T03:20:03;20.42;;;10.05;;
58864;SDS011;45702;52.982;6.658;2023-07-29T03:22:30;24.60;;;10.15;;
58864;SDS011;45702;52.982;6.658;2023-07-29T03:24:55;20.50;;;9.98;;
58864;SDS011;45702;52.982;6.658;2023-07-29T03:27:21;27.83;;;9.85;;
58864;SDS011;45702;52.982;6.658;2023-07-29T03:29:47;17.80;;;9.35;;
58864;SDS011;45702;52.982;6.658;2023-07-29T03:32:12;19.20;;;9.00;;
58864;SDS011;45702;52.982;6.658;2023-07-29T03:34:38;18.33;;;9.50;;
58864;SDS011;45702;52.982;6.658;2023-07-29T03:37:05;17.77;;;9.20;;
58864;SDS011;45702;52.982;6.658;2023-07-29T03:39:31;22.02;;;8.68;;
58864;SDS011;45702;52.982;6.658;2023-07-29T03:41:57;17.35;;;8.85;;
58864;SDS011;45702;52.982;6.658;2023-07-29T03:44:23;20.02;;;8.80;;
58864;SDS011;45702;52.982;6.658;2023-07-29T03:46:49;15.57;;;8.50;;
58864;SDS011;45702;52.982;6.658;2023-07-29T03:49:14;17.98;;;8.85;;
58864;SDS011;45702;52.982;6.658;2023-07-29T03:51:40;16.65;;;8.70;;
58864;SDS011;45702;52.982;6.658;2023-07-29T03:54:06;16.50;;;8.43;;
58864;SDS011;45702;52.982;6.658;2023-07-29T03:56:32;17.60;;;8.38;;
58864;SDS011;45702;52.982;6.658;2023-07-29T03:59:04;16.15;;;8.25;;
58864;SDS011;45702;52.982;6.658;2023-07-29T04:01:30;16.25;;;8.13;;
58864;SDS011;45702;52.982;6.658;2023-07-29T04:03:58;16.48;;;7.95;;
58864;SDS011;45702;52.982;6.658;2023-07-29T04:06:24;25.13;;;8.87;;
58864;SDS011;45702;52.982;6.658;2023-07-29T04:08:50;21.63;;;8.57;;
58864;SDS011;45702;52.982;6.658;2023-07-29T04:11:16;14.85;;;8.38;;
58864;SDS011;45702;52.982;6.658;2023-07-29T04:13:42;19.25;;;9.38;;
58864;SDS011;45702;52.982;6.658;2023-07-29T04:16:07;17.15;;;8.63;;
58864;SDS011;45702;52.982;6.658;2023-07-29T04:18:33;18.40;;;9.25;;
58864;SDS011;45702;52.982;6.658;2023-07-29T04:20:59;20.67;;;9.27;;
58864;SDS011;45702;52.982;6.658;2023-07-29T04:23:25;20.92;;;8.73;;
58864;SDS011;45702;52.982;6.658;2023-07-29T04:25:51;17.42;;;9.15;;
58864;SDS011;45702;52.982;6.658;2023-07-29T04:28:17;18.60;;;9.63;;
58864;SDS011;45702;52.982;6.658;2023-07-29T04:30:42;18.05;;;9.27;;
58864;SDS011;45702;52.982;6.658;2023-07-29T04:33:08;17.70;;;8.77;;
58864;SDS011;45702;52.982;6.658;2023-07-29T04:35:34;17.10;;;8.85;;
58864;SDS011;45702;52.982;6.658;2023-07-29T04:37:59;21.70;;;8.85;;
58864;SDS011;45702;52.982;6.658;2023-07-29T04:40:25;18.67;;;8.43;;
58864;SDS011;45702;52.982;6.658;2023-07-29T04:42:51;16.15;;;8.05;;
58864;SDS011;45702;52.982;6.658;2023-07-29T04:45:17;20.42;;;9.13;;
58864;SDS011;45702;52.982;6.658;2023-07-29T04:47:42;16.48;;;8.40;;
58864;SDS011;45702;52.982;6.658;2023-07-29T04:50:08;18.85;;;8.27;;
58864;SDS011;45702;52.982;6.658;2023-07-29T04:52:34;16.63;;;7.40;;
58864;SDS011;45702;52.982;6.658;2023-07-29T04:55:00;15.60;;;8.10;;
58864;SDS011;45702;52.982;6.658;2023-07-29T04:57:26;15.05;;;6.78;;
58864;SDS011;45702;52.982;6.658;2023-07-29T04:59:51;16.02;;;6.50;;
58864;SDS011;45702;52.982;6.658;2023-07-29T05:02:17;14.05;;;6.72;;
58864;SDS011;45702;52.982;6.658;2023-07-29T05:04:42;13.35;;;7.05;;
58864;SDS011;45702;52.982;6.658;2023-07-29T05:07:08;11.90;;;6.22;;
58864;SDS011;45702;52.982;6.658;2023-07-29T05:09:34;10.52;;;5.85;;
58864;SDS011;45702;52.982;6.658;2023-07-29T05:12:00;14.95;;;6.68;;
58864;SDS011;45702;52.982;6.658;2023-07-29T05:14:25;12.88;;;6.07;;
58864;SDS011;45702;52.982;6.658;2023-07-29T05:16:51;13.55;;;6.45;;
58864;SDS011;45702;52.982;6.658;2023-07-29T05:19:17;12.68;;;6.47;;
58864;SDS011;45702;52.982;6.658;2023-07-29T05:21:43;16.85;;;6.50;;
58864;SDS011;45702;52.982;6.658;2023-07-29T05:24:08;12.38;;;6.30;;
58864;SDS011;45702;52.982;6.658;2023-07-29T05:26:34;12.18;;;6.03;;
58864;SDS011;45702;52.982;6.658;2023-07-29T05:29:00;11.65;;;6.15;;
58864;SDS011;45702;52.982;6.658;2023-07-29T05:31:26;14.40;;;6.40;;
58864;SDS011;45702;52.982;6.658;2023-07-29T05:33:51;16.17;;;5.93;;
58864;SDS011;45702;52.982;6.658;2023-07-29T05:36:17;14.05;;;5.68;;
58864;SDS011;45702;52.982;6.658;2023-07-29T05:38:43;12.52;;;5.50;;
58864;SDS011;45702;52.982;6.658;2023-07-29T05:41:08;13.13;;;5.30;;
58864;SDS011;45702;52.982;6.658;2023-07-29T05:43:34;13.77;;;5.25;;
58864;SDS011;45702;52.982;6.658;2023-07-29T05:46:00;12.55;;;5.53;;
58864;SDS011;45702;52.982;6.658;2023-07-29T05:48:26;10.40;;;5.20;;
58864;SDS011;45702;52.982;6.658;2023-07-29T05:50:52;14.30;;;5.60;;
58864;SDS011;45702;52.982;6.658;2023-07-29T05:53:18;12.15;;;5.18;;
58864;SDS011;45702;52.982;6.658;2023-07-29T05:55:43;10.52;;;5.30;;
58864;SDS011;45702;52.982;6.658;2023-07-29T05:58:09;10.18;;;4.80;;
58864;SDS011;45702;52.982;6.658;2023-07-29T06:00:35;12.30;;;5.53;;
58864;SDS011;45702;52.982;6.658;2023-07-29T06:03:01;10.35;;;4.85;;
58864;SDS011;45702;52.982;6.658;2023-07-29T06:05:26;10.70;;;4.95;;
58864;SDS011;45702;52.982;6.658;2023-07-29T06:07:52;16.73;;;5.38;;
58864;SDS011;45702;52.982;6.658;2023-07-29T06:10:18;11.93;;;4.60;;
58864;SDS011;45702;52.982;6.658;2023-07-29T06:12:44;11.40;;;5.07;;
58864;SDS011;45702;52.982;6.658;2023-07-29T06:15:10;12.50;;;5.47;;
58864;SDS011;45702;52.982;6.658;2023-07-29T06:17:37;14.05;;;5.25;;
58864;SDS011;45702;52.982;6.658;2023-07-29T06:20:03;11.10;;;5.43;;
58864;SDS011;45702;52.982;6.658;2023-07-29T06:22:31;12.82;;;5.28;;
58864;SDS011;45702;52.982;6.658;2023-07-29T06:24:56;13.02;;;5.28;;
58864;SDS011;45702;52.982;6.658;2023-07-29T06:27:22;15.93;;;6.03;;
58864;SDS011;45702;52.982;6.658;2023-07-29T06:29:50;14.63;;;5.72;;
58864;SDS011;45702;52.982;6.658;2023-07-29T06:32:16;15.20;;;6.45;;
58864;SDS011;45702;52.982;6.658;2023-07-29T06:34:41;16.17;;;5.97;;
58864;SDS011;45702;52.982;6.658;2023-07-29T06:37:07;13.93;;;5.75;;
58864;SDS011;45702;52.982;6.658;2023-07-29T06:39:33;15.15;;;6.10;;
58864;SDS011;45702;52.982;6.658;2023-07-29T06:41:58;14.98;;;5.75;;
58864;SDS011;45702;52.982;6.658;2023-07-29T06:44:24;15.52;;;5.65;;
58864;SDS011;45702;52.982;6.658;2023-07-29T06:46:50;15.32;;;5.60;;
58864;SDS011;45702;52.982;6.658;2023-07-29T06:49:15;15.90;;;5.53;;
58864;SDS011;45702;52.982;6.658;2023-07-29T06:51:41;13.57;;;6.25;;
58864;SDS011;45702;52.982;6.658;2023-07-29T06:54:07;18.40;;;6.35;;
58864;SDS011;45702;52.982;6.658;2023-07-29T06:56:32;15.45;;;6.20;;
58864;SDS011;45702;52.982;6.658;2023-07-29T06:58:58;17.40;;;6.30;;
58864;SDS011;45702;52.982;6.658;2023-07-29T07:01:24;15.07;;;6.22;;
58864;SDS011;45702;52.982;6.658;2023-07-29T07:03:50;16.63;;;6.18;;
58864;SDS011;45702;52.982;6.658;2023-07-29T07:06:19;16.13;;;6.47;;
58864;SDS011;45702;52.982;6.658;2023-07-29T07:08:46;23.20;;;7.28;;
58864;SDS011;45702;52.982;6.658;2023-07-29T07:11:11;15.60;;;6.70;;
58864;SDS011;45702;52.982;6.658;2023-07-29T07:13:37;17.17;;;6.60;;
58864;SDS011;45702;52.982;6.658;2023-07-29T07:16:03;17.02;;;7.43;;
58864;SDS011;45702;52.982;6.658;2023-07-29T07:18:29;20.75;;;8.63;;
58864;SDS011;45702;52.982;6.658;2023-07-29T07:20:54;21.90;;;8.35;;
58864;SDS011;45702;52.982;6.658;2023-07-29T07:23:20;22.20;;;9.90;;
58864;SDS011;45702;52.982;6.658;2023-07-29T07:25:46;21.13;;;10.02;;
58864;SDS011;45702;52.982;6.658;2023-07-29T07:28:12;21.75;;;9.95;;
58864;SDS011;45702;52.982;6.658;2023-07-29T07:30:40;19.98;;;10.07;;
58864;SDS011;45702;52.982;6.658;2023-07-29T07:33:07;24.95;;;10.68;;
58864;SDS011;45702;52.982;6.658;2023-07-29T07:35:32;21.83;;;10.45;;
58864;SDS011;45702;52.982;6.658;2023-07-29T07:37:58;20.95;;;10.23;;
58864;SDS011;45702;52.982;6.658;2023-07-29T07:42:52;22.00;;;10.98;;
58864;SDS011;45702;52.982;6.658;2023-07-29T07:45:18;23.55;;;10.50;;
58864;SDS011;45702;52.982;6.658;2023-07-29T07:47:44;18.13;;;9.68;;
58864;SDS011;45702;52.982;6.658;2023-07-29T07:50:10;21.05;;;10.38;;
58864;SDS011;45702;52.982;6.658;2023-07-29T07:52:36;17.70;;;9.35;;
58864;SDS011;45702;52.982;6.658;2023-07-29T07:55:02;20.27;;;9.63;;
58864;SDS011;45702;52.982;6.658;2023-07-29T07:57:27;23.60;;;9.80;;
58864;SDS011;45702;52.982;6.658;2023-07-29T07:59:53;18.85;;;10.05;;
58864;SDS011;45702;52.982;6.658;2023-07-29T08:02:19;18.83;;;10.13;;
58864;SDS011;45702;52.982;6.658;2023-07-29T08:04:45;20.70;;;10.65;;
58864;SDS011;45702;52.982;6.658;2023-07-29T08:07:11;20.77;;;9.43;;
58864;SDS011;45702;52.982;6.658;2023-07-29T08:09:38;19.38;;;9.80;;
58864;SDS011;45702;52.982;6.658;2023-07-29T08:12:04;15.50;;;9.85;;
58864;SDS011;45702;52.982;6.658;2023-07-29T08:14:30;15.10;;;9.77;;
58864;SDS011;45702;52.982;6.658;2023-07-29T08:16:56;18.52;;;10.45;;
58864;SDS011;45702;52.982;6.658;2023-07-29T08:19:21;22.27;;;11.00;;
58864;SDS011;45702;52.982;6.658;2023-07-29T08:21:47;17.80;;;10.82;;
58864;SDS011;45702;52.982;6.658;2023-07-29T08:24:13;22.98;;;10.30;;
58864;SDS011;45702;52.982;6.658;2023-07-29T08:26:39;19.48;;;10.27;;
58864;SDS011;45702;52.982;6.658;2023-07-29T08:29:04;20.13;;;10.07;;
58864;SDS011;45702;52.982;6.658;2023-07-29T08:31:30;21.92;;;9.90;;
58864;SDS011;45702;52.982;6.658;2023-07-29T08:33:59;16.10;;;8.98;;
58864;SDS011;45702;52.982;6.658;2023-07-29T08:36:25;18.13;;;9.07;;
58864;SDS011;45702;52.982;6.658;2023-07-29T08:38:51;20.88;;;9.73;;
58864;SDS011;45702;52.982;6.658;2023-07-29T08:41:29;17.05;;;8.98;;
58864;SDS011;45702;52.982;6.658;2023-07-29T08:46:38;17.35;;;8.75;;
58864;SDS011;45702;52.982;6.658;2023-07-29T08:49:04;12.35;;;7.90;;
58864;SDS011;45702;52.982;6.658;2023-07-29T08:51:31;10.25;;;6.90;;
58864;SDS011;45702;52.982;6.658;2023-07-29T08:53:58;16.53;;;7.60;;
58864;SDS011;45702;52.982;6.658;2023-07-29T08:56:24;14.82;;;7.50;;
58864;SDS011;45702;52.982;6.658;2023-07-29T08:58:50;13.75;;;7.47;;
58864;SDS011;45702;52.982;6.658;2023-07-29T09:01:17;11.23;;;7.28;;
58864;SDS011;45702;52.982;6.658;2023-07-29T09:03:43;15.02;;;6.38;;
58864;SDS011;45702;52.982;6.658;2023-07-29T09:06:09;10.35;;;6.85;;
58864;SDS011;45702;52.982;6.658;2023-07-29T09:08:35;11.20;;;6.45;;
58864;SDS011;45702;52.982;6.658;2023-07-29T09:11:00;13.88;;;7.22;;
58864;SDS011;45702;52.982;6.658;2023-07-29T09:13:27;9.70;;;5.55;;
58864;SDS011;45702;52.982;6.658;2023-07-29T09:15:54;11.88;;;5.57;;
58864;SDS011;45702;52.982;6.658;2023-07-29T09:18:21;11.73;;;6.37;;
58864;SDS011;45702;52.982;6.658;2023-07-29T09:20:47;13.15;;;6.15;;
58864;SDS011;45702;52.982;6.658;2023-07-29T09:23:14;14.90;;;6.45;;
58864;SDS011;45702;52.982;6.658;2023-07-29T09:25:40;8.98;;;5.90;;
58864;SDS011;45702;52.982;6.658;2023-07-29T09:28:10;11.93;;;5.72;;
58864;SDS011;45702;52.982;6.658;2023-07-29T09:30:41;9.70;;;5.63;;
58864;SDS011;45702;52.982;6.658;2023-07-29T09:33:12;11.30;;;5.50;;
58864;SDS011;45702;52.982;6.658;2023-07-29T09:35:38;9.35;;;5.40;;
58864;SDS011;45702;52.982;6.658;2023-07-29T09:38:04;8.82;;;4.63;;
58864;SDS011;45702;52.982;6.658;2023-07-29T09:43:05;9.20;;;4.75;;
58864;SDS011;45702;52.982;6.658;2023-07-29T09:45:35;7.63;;;4.63;;
58864;SDS011;45702;52.982;6.658;2023-07-29T09:48:03;11.75;;;5.65;;
58864;SDS011;45702;52.982;6.658;2023-07-29T09:50:35;11.23;;;4.82;;
58864;SDS011;45702;52.982;6.658;2023-07-29T09:53:04;9.98;;;5.40;;
58864;SDS011;45702;52.982;6.658;2023-07-29T09:55:33;14.60;;;5.70;;
58864;SDS011;45702;52.982;6.658;2023-07-29T09:58:00;9.57;;;5.78;;
58864;SDS011;45702;52.982;6.658;2023-07-29T10:00:29;14.75;;;5.85;;
58864;SDS011;45702;52.982;6.658;2023-07-29T10:03:16;10.32;;;5.30;;
58864;SDS011;45702;52.982;6.658;2023-07-29T10:06:34;12.90;;;6.82;;
58864;SDS011;45702;52.982;6.658;2023-07-29T10:09:00;8.80;;;5.25;;
58864;SDS011;45702;52.982;6.658;2023-07-29T10:11:26;10.80;;;5.03;;
58864;SDS011;45702;52.982;6.658;2023-07-29T10:13:52;8.43;;;4.28;;
58864;SDS011;45702;52.982;6.658;2023-07-29T10:16:18;9.63;;;4.20;;
58864;SDS011;45702;52.982;6.658;2023-07-29T10:18:45;9.55;;;3.55;;
58864;SDS011;45702;52.982;6.658;2023-07-29T10:21:11;8.35;;;3.72;;
58864;SDS011;45702;52.982;6.658;2023-07-29T10:23:40;10.32;;;3.67;;
58864;SDS011;45702;52.982;6.658;2023-07-29T10:26:10;8.35;;;3.22;;
58864;SDS011;45702;52.982;6.658;2023-07-29T10:28:39;6.97;;;3.00;;
58864;SDS011;45702;52.982;6.658;2023-07-29T10:31:06;12.23;;;3.40;;
58864;SDS011;45702;52.982;6.658;2023-07-29T10:33:33;8.52;;;3.28;;
58864;SDS011;45702;52.982;6.658;2023-07-29T10:35:59;8.25;;;3.63;;
58864;SDS011;45702;52.982;6.658;2023-07-29T10:38:26;8.75;;;3.20;;
58864;SDS011;45702;52.982;6.658;2023-07-29T10:40:53;7.70;;;3.50;;
58864;SDS011;45702;52.982;6.658;2023-07-29T10:43:34;9.40;;;2.88;;
58864;SDS011;45702;52.982;6.658;2023-07-29T10:46:20;8.68;;;2.90;;
58864;SDS011;45702;52.982;6.658;2023-07-29T10:51:22;6.68;;;3.63;;
58864;SDS011;45702;52.982;6.658;2023-07-29T10:54:02;6.07;;;3.42;;
58864;SDS011;45702;52.982;6.658;2023-07-29T10:56:43;7.93;;;3.55;;
58864;SDS011;45702;52.982;6.658;2023-07-29T11:01:43;12.20;;;4.90;;
58864;SDS011;45702;52.982;6.658;2023-07-29T11:15:13;7.85;;;3.88;;
58864;SDS011;45702;52.982;6.658;2023-07-29T11:20:15;6.15;;;3.42;;
58864;SDS011;45702;52.982;6.658;2023-07-29T11:22:42;8.30;;;4.13;;
58864;SDS011;45702;52.982;6.658;2023-07-29T11:25:09;9.75;;;3.80;;
58864;SDS011;45702;52.982;6.658;2023-07-29T11:27:37;6.57;;;3.80;;
58864;SDS011;45702;52.982;6.658;2023-07-29T11:30:04;10.00;;;3.63;;
58864;SDS011;45702;52.982;6.658;2023-07-29T11:32:32;11.68;;;3.67;;
58864;SDS011;45702;52.982;6.658;2023-07-29T11:35:33;9.77;;;3.78;;
58864;SDS011;45702;52.982;6.658;2023-07-29T11:37:53;9.90;;;4.07;;
58864;SDS011;45702;52.982;6.658;2023-07-29T11:40:21;10.75;;;4.20;;
58864;SDS011;45702;52.982;6.658;2023-07-29T11:42:48;9.95;;;3.83;;
58864;SDS011;45702;52.982;6.658;2023-07-29T11:45:16;10.63;;;3.90;;
58864;SDS011;45702;52.982;6.658;2023-07-29T11:47:49;8.75;;;4.35;;
58864;SDS011;45702;52.982;6.658;2023-07-29T11:50:14;12.75;;;3.67;;
58864;SDS011;45702;52.982;6.658;2023-07-29T11:52:41;10.63;;;4.10;;
58864;SDS011;45702;52.982;6.658;2023-07-29T11:55:08;11.77;;;3.65;;
58864;SDS011;45702;52.982;6.658;2023-07-29T11:57:36;10.82;;;4.00;;
58864;SDS011;45702;52.982;6.658;2023-07-29T12:00:04;12.70;;;4.28;;
58864;SDS011;45702;52.982;6.658;2023-07-29T12:02:31;8.23;;;4.10;;
58864;SDS011;45702;52.982;6.658;2023-07-29T12:04:59;13.77;;;4.53;;
58864;SDS011;45702;52.982;6.658;2023-07-29T12:07:25;14.55;;;4.53;;
58864;SDS011;45702;52.982;6.658;2023-07-29T12:09:52;13.52;;;3.65;;
58864;SDS011;45702;52.982;6.658;2023-07-29T12:12:18;9.30;;;3.80;;
58864;SDS011;45702;52.982;6.658;2023-07-29T12:14:45;12.93;;;4.35;;
58864;SDS011;45702;52.982;6.658;2023-07-29T12:17:13;9.15;;;3.90;;
58864;SDS011;45702;52.982;6.658;2023-07-29T12:19:39;12.45;;;4.90;;
58864;SDS011;45702;52.982;6.658;2023-07-29T12:22:07;7.85;;;3.72;;
58864;SDS011;45702;52.982;6.658;2023-07-29T12:27:01;16.90;;;4.30;;
58864;SDS011;45702;52.982;6.658;2023-07-29T12:29:27;10.15;;;4.20;;
58864;SDS011;45702;52.982;6.658;2023-07-29T12:32:00;11.32;;;4.75;;
58864;SDS011;45702;52.982;6.658;2023-07-29T12:34:27;11.82;;;4.00;;
58864;SDS011;45702;52.982;6.658;2023-07-29T12:36:54;9.00;;;3.70;;
58864;SDS011;45702;52.982;6.658;2023-07-29T12:39:22;11.50;;;4.55;;
58864;SDS011;45702;52.982;6.658;2023-07-29T12:41:50;8.98;;;4.00;;
58864;SDS011;45702;52.982;6.658;2023-07-29T12:44:17;11.45;;;4.25;;
58864;SDS011;45702;52.982;6.658;2023-07-29T12:46:42;13.50;;;4.82;;
58864;SDS011;45702;52.982;6.658;2023-07-29T12:49:08;10.18;;;4.18;;
58864;SDS011;45702;52.982;6.658;2023-07-29T12:51:34;9.65;;;3.83;;
58864;SDS011;45702;52.982;6.658;2023-07-29T12:54:01;7.53;;;3.60;;
58864;SDS011;45702;52.982;6.658;2023-07-29T12:56:28;9.88;;;3.70;;
58864;SDS011;45702;52.982;6.658;2023-07-29T12:58:56;7.45;;;3.28;;
58864;SDS011;45702;52.982;6.658;2023-07-29T13:01:25;9.43;;;3.78;;
58864;SDS011;45702;52.982;6.658;2023-07-29T13:03:51;10.23;;;3.78;;
58864;SDS011;45702;52.982;6.658;2023-07-29T13:06:17;8.40;;;3.45;;
58864;SDS011;45702;52.982;6.658;2023-07-29T13:08:44;11.63;;;3.72;;
58864;SDS011;45702;52.982;6.658;2023-07-29T13:11:10;8.65;;;3.20;;
58864;SDS011;45702;52.982;6.658;2023-07-29T13:13:36;6.95;;;3.40;;
58864;SDS011;45702;52.982;6.658;2023-07-29T13:16:02;7.03;;;2.95;;
58864;SDS011;45702;52.982;6.658;2023-07-29T13:18:28;5.93;;;2.92;;
58864;SDS011;45702;52.982;6.658;2023-07-29T13:20:54;7.80;;;3.10;;
58864;SDS011;45702;52.982;6.658;2023-07-29T13:23:20;6.68;;;2.53;;
58864;SDS011;45702;52.982;6.658;2023-07-29T13:25:46;4.68;;;2.10;;
58864;SDS011;45702;52.982;6.658;2023-07-29T13:28:12;6.38;;;3.00;;
58864;SDS011;45702;52.982;6.658;2023-07-29T13:30:38;8.77;;;3.72;;
58864;SDS011;45702;52.982;6.658;2023-07-29T13:33:05;8.52;;;2.45;;
58864;SDS011;45702;52.982;6.658;2023-07-29T13:35:32;7.10;;;2.63;;
58864;SDS011;45702;52.982;6.658;2023-07-29T13:37:58;6.75;;;2.10;;
58864;SDS011;45702;52.982;6.658;2023-07-29T13:40:23;5.95;;;1.90;;
58864;SDS011;45702;52.982;6.658;2023-07-29T13:42:49;4.55;;;1.70;;
58864;SDS011;45702;52.982;6.658;2023-07-29T13:45:15;4.60;;;2.05;;
58864;SDS011;45702;52.982;6.658;2023-07-29T13:47:41;3.83;;;1.60;;
58864;SDS011;45702;52.982;6.658;2023-07-29T13:50:07;3.90;;;1.70;;
58864;SDS011;45702;52.982;6.658;2023-07-29T13:52:33;6.03;;;1.50;;
58864;SDS011;45702;52.982;6.658;2023-07-29T13:54:59;2.70;;;1.38;;
58864;SDS011;45702;52.982;6.658;2023-07-29T13:57:25;4.30;;;1.27;;
58864;SDS011;45702;52.982;6.658;2023-07-29T13:59:50;1.35;;;0.90;;
58864;SDS011;45702;52.982;6.658;2023-07-29T14:02:16;2.95;;;1.08;;
58864;SDS011;45702;52.982;6.658;2023-07-29T14:04:42;3.50;;;1.15;;
58864;SDS011;45702;52.982;6.658;2023-07-29T14:07:07;2.70;;;1.02;;
58864;SDS011;45702;52.982;6.658;2023-07-29T14:09:33;3.25;;;1.42;;
58864;SDS011;45702;52.982;6.658;2023-07-29T14:11:59;2.00;;;1.02;;
58864;SDS011;45702;52.982;6.658;2023-07-29T14:14:25;3.85;;;1.23;;
58864;SDS011;45702;52.982;6.658;2023-07-29T14:16:50;2.85;;;1.35;;
58864;SDS011;45702;52.982;6.658;2023-07-29T14:19:16;3.22;;;1.40;;
58864;SDS011;45702;52.982;6.658;2023-07-29T14:21:42;5.45;;;1.25;;
58864;SDS011;45702;52.982;6.658;2023-07-29T14:24:07;2.80;;;1.30;;
58864;SDS011;45702;52.982;6.658;2023-07-29T14:26:33;3.28;;;1.45;;
58864;SDS011;45702;52.982;6.658;2023-07-29T14:28:59;5.47;;;1.40;;
58864;SDS011;45702;52.982;6.658;2023-07-29T14:31:25;2.72;;;1.25;;
58864;SDS011;45702;52.982;6.658;2023-07-29T14:33:50;3.45;;;1.35;;
58864;SDS011;45702;52.982;6.658;2023-07-29T14:36:16;5.78;;;1.45;;
58864;SDS011;45702;52.982;6.658;2023-07-29T14:38:42;5.20;;;1.63;;
58864;SDS011;45702;52.982;6.658;2023-07-29T14:41:08;4.20;;;1.58;;
58864;SDS011;45702;52.982;6.658;2023-07-29T14:43:34;3.08;;;1.70;;
58864;SDS011;45702;52.982;6.658;2023-07-29T14:46:00;4.93;;;1.80;;
58864;SDS011;45702;52.982;6.658;2023-07-29T14:48:26;4.68;;;1.60;;
58864;SDS011;45702;52.982;6.658;2023-07-29T14:50:52;5.30;;;1.67;;
58864;SDS011;45702;52.982;6.658;2023-07-29T14:53:18;2.80;;;1.80;;
58864;SDS011;45702;52.982;6.658;2023-07-29T14:55:44;4.10;;;1.80;;
58864;SDS011;45702;52.982;6.658;2023-07-29T14:58:10;3.30;;;1.70;;
58864;SDS011;45702;52.982;6.658;2023-07-29T15:00:35;4.13;;;1.77;;
58864;SDS011;45702;52.982;6.658;2023-07-29T15:03:01;5.40;;;2.13;;
58864;SDS011;45702;52.982;6.658;2023-07-29T15:05:28;6.65;;;2.00;;
58864;SDS011;45702;52.982;6.658;2023-07-29T15:07:54;2.85;;;1.40;;
58864;SDS011;45702;52.982;6.658;2023-07-29T15:10:20;5.20;;;1.80;;
58864;SDS011;45702;52.982;6.658;2023-07-29T15:12:46;3.22;;;1.48;;
58864;SDS011;45702;52.982;6.658;2023-07-29T15:15:12;3.85;;;1.75;;